createdAt,value
2019-05-10T00:01:15.981Z,87.81
2019-05-10T00:03:40.047Z,87.89
2019-05-10T00:06:04.446Z,88.00
2019-05-10T00:08:30.158Z,88.29
2019-05-10T00:10:36.918Z,88.42
2019-05-10T00:12:44.824Z,88.83
2019-05-10T00:14:52.659Z,89.28
2019-05-10T00:17:04.030Z,89.36
2019-05-10T00:19:21.239Z,89.41
2019-05-10T00:21:30.413Z,89.52
2019-05-10T00:23:41.276Z,89.61
2019-05-10T00:25:56.369Z,89.66
2019-05-10T00:27:59.467Z,89.63
2019-05-10T00:30:11.681Z,89.65
2019-05-10T00:32:18.022Z,89.69
2019-05-10T00:34:24.604Z,89.67
2019-05-10T00:36:30.946Z,89.63
2019-05-10T00:38:37.328Z,89.59
2019-05-10T00:40:44.289Z,89.64
2019-05-10T00:42:50.666Z,89.69
2019-05-10T00:44:57.542Z,89.75
2019-05-10T00:47:04.544Z,89.75
2019-05-10T00:49:11.317Z,89.70
2019-05-10T00:51:17.738Z,89.70
2019-05-10T00:53:23.983Z,89.80
2019-05-10T00:55:30.467Z,89.74
2019-05-10T00:57:38.163Z,89.75
2019-05-10T00:59:44.537Z,89.76
2019-05-10T01:01:51.088Z,89.76
2019-05-10T01:03:57.420Z,89.74
2019-05-10T01:06:03.881Z,89.68
2019-05-10T01:08:10.293Z,89.75
2019-05-10T01:10:18.077Z,89.73
2019-05-10T01:12:24.603Z,89.69
2019-05-10T01:14:30.896Z,89.59
2019-05-10T01:16:37.388Z,89.62
2019-05-10T01:18:43.951Z,89.56
2019-05-10T01:20:50.622Z,89.49
2019-05-10T01:22:56.983Z,89.55
2019-05-10T01:25:03.328Z,89.53
2019-05-10T01:27:09.598Z,89.47
2019-05-10T01:29:17.816Z,89.40
2019-05-10T01:31:24.484Z,89.35
2019-05-10T01:33:30.844Z,89.44
2019-05-10T01:35:37.186Z,89.49
2019-05-10T01:37:45.220Z,89.41
2019-05-10T01:39:51.670Z,89.45
2019-05-10T01:41:58.035Z,89.42
2019-05-10T01:44:04.590Z,89.41
2019-05-10T01:46:11.169Z,89.39
2019-05-10T01:48:18.029Z,89.33
2019-05-10T01:50:24.418Z,89.34
2019-05-10T01:52:31.148Z,89.40
2019-05-10T01:54:38.124Z,89.43
2019-05-10T01:56:46.425Z,89.38
2019-05-10T01:58:53.028Z,89.41
2019-05-10T02:01:00.547Z,89.34
2019-05-10T02:03:08.227Z,89.37
2019-05-10T02:05:17.034Z,89.36
2019-05-10T02:07:23.399Z,89.55
2019-05-10T02:09:33.271Z,89.51
2019-05-10T02:11:37.860Z,89.33
2019-05-10T02:13:45.956Z,89.73
2019-05-10T02:15:52.642Z,89.40
2019-05-10T02:17:59.115Z,89.33
2019-05-10T02:20:08.895Z,89.29
2019-05-10T02:22:15.273Z,89.44
2019-05-10T02:24:21.667Z,89.07
2019-05-10T02:26:28.529Z,88.96
2019-05-10T02:28:34.897Z,89.09
2019-05-10T02:30:41.258Z,89.13
2019-05-10T02:32:47.698Z,89.22
2019-05-10T02:34:53.969Z,89.38
2019-05-10T02:37:02.008Z,89.39
2019-05-10T02:39:10.238Z,89.50
2019-05-10T02:41:16.553Z,89.78
2019-05-10T02:43:24.346Z,89.69
2019-05-10T02:45:30.818Z,89.76
2019-05-10T02:47:40.774Z,90.04
2019-05-10T02:49:47.019Z,90.08
2019-05-10T02:51:53.386Z,90.11
2019-05-10T02:54:00.956Z,90.30
2019-05-10T02:56:07.440Z,90.39
2019-05-10T03:00:31.181Z,90.50
2019-05-10T03:02:39.338Z,90.56
2019-05-10T03:04:48.024Z,90.33
2019-05-10T03:07:03.693Z,89.98
2019-05-10T03:09:10.212Z,90.08
2019-05-10T03:11:17.189Z,90.11
2019-05-10T03:13:29.186Z,89.77
2019-05-10T03:15:39.179Z,89.53
2019-05-10T03:17:48.064Z,89.67
2019-05-10T03:19:55.412Z,89.51
2019-05-10T03:22:07.579Z,89.64
2019-05-10T03:24:14.407Z,89.67
2019-05-10T03:26:21.081Z,90.10
2019-05-10T03:28:29.180Z,89.40
2019-05-10T03:30:35.953Z,89.12
2019-05-10T03:32:42.497Z,88.94
2019-05-10T03:34:49.078Z,89.22
2019-05-10T03:36:56.363Z,89.00
2019-05-10T03:39:02.715Z,88.74
2019-05-10T03:41:09.282Z,88.83
2019-05-10T03:43:15.866Z,88.00
2019-05-10T03:45:22.212Z,88.09
2019-05-10T03:47:28.568Z,88.59
2019-05-10T03:49:34.861Z,87.66
2019-05-10T03:51:41.414Z,86.63
2019-05-10T03:53:47.770Z,86.51
2019-05-10T03:55:54.153Z,85.02
2019-05-10T03:58:00.913Z,84.30
2019-05-10T04:00:11.637Z,83.78
2019-05-10T04:02:18.129Z,82.92
2019-05-10T04:04:25.925Z,81.34
2019-05-10T04:06:33.109Z,79.11
2019-05-10T04:08:39.604Z,76.80
2019-05-10T04:10:47.389Z,76.97
2019-05-10T04:12:53.732Z,79.04
2019-05-10T04:15:00.109Z,78.74
2019-05-10T04:17:06.461Z,77.54
2019-05-10T04:19:14.170Z,78.36
2019-05-10T04:21:23.291Z,77.49
2019-05-10T04:23:29.658Z,75.15
2019-05-10T04:25:37.633Z,73.71
2019-05-10T04:27:44.286Z,71.58
2019-05-10T04:29:50.692Z,72.28
2019-05-10T04:31:57.253Z,73.74
2019-05-10T04:34:03.610Z,73.96
2019-05-10T04:36:12.556Z,73.42
2019-05-10T04:38:17.984Z,71.69
2019-05-10T04:40:27.447Z,68.87
2019-05-10T04:42:33.867Z,67.21
2019-05-10T04:44:40.242Z,67.12
2019-05-10T04:46:46.596Z,63.47
2019-05-10T04:48:52.952Z,67.12
2019-05-10T04:51:00.615Z,67.57
2019-05-10T04:53:07.025Z,68.89
2019-05-10T04:55:13.496Z,69.65
2019-05-10T04:57:19.939Z,71.90
2019-05-10T04:59:26.279Z,73.70
2019-05-10T05:01:32.766Z,74.84
2019-05-10T05:03:40.010Z,76.27
2019-05-10T05:05:46.449Z,75.95
2019-05-10T05:07:54.639Z,74.25
2019-05-10T05:10:04.478Z,72.15
2019-05-10T05:12:10.957Z,71.57
2019-05-10T05:14:17.428Z,72.15
2019-05-10T05:16:24.188Z,72.08
2019-05-10T05:18:31.983Z,72.86
2019-05-10T05:20:38.330Z,73.27
2019-05-10T05:22:44.714Z,73.73
2019-05-10T05:24:55.249Z,74.27
2019-05-10T05:26:59.171Z,75.07
2019-05-10T05:29:05.631Z,75.03
2019-05-10T05:31:12.308Z,75.13
2019-05-10T05:33:18.886Z,75.11
2019-05-10T05:35:25.641Z,74.97
2019-05-10T05:37:32.104Z,75.59
2019-05-10T05:39:38.556Z,75.12
2019-05-10T05:41:51.764Z,74.89
2019-05-10T05:43:54.677Z,73.91
2019-05-10T05:46:01.038Z,73.91
2019-05-10T05:48:09.548Z,74.71
2019-05-10T05:50:16.208Z,74.33
2019-05-10T05:52:23.103Z,75.50
2019-05-10T05:54:31.033Z,74.14
2019-05-10T05:56:37.367Z,74.05
2019-05-10T05:58:47.095Z,73.37
2019-05-10T06:00:54.591Z,73.75
2019-05-10T06:03:00.961Z,74.23
2019-05-10T06:05:10.473Z,74.20
2019-05-10T06:07:16.747Z,74.07
2019-05-10T06:09:24.338Z,73.71
2019-05-10T06:11:35.827Z,73.19
2019-05-10T06:13:40.242Z,73.21
2019-05-10T06:15:46.810Z,73.10
2019-05-10T06:17:56.997Z,71.72
2019-05-10T06:20:05.924Z,71.05
2019-05-10T06:22:10.614Z,70.82
2019-05-10T06:24:17.397Z,70.62
2019-05-10T06:26:28.398Z,70.72
2019-05-10T06:28:56.851Z,70.44
2019-05-10T06:30:40.049Z,70.60
2019-05-10T06:32:46.815Z,70.16
2019-05-10T06:34:53.400Z,69.39
2019-05-10T06:36:59.850Z,68.89
2019-05-10T06:39:08.817Z,69.02
2019-05-10T06:41:16.623Z,69.70
2019-05-10T06:43:23.330Z,70.42
2019-05-10T06:45:30.949Z,71.42
2019-05-10T06:47:42.094Z,71.90
2019-05-10T06:49:50.806Z,71.18
2019-05-10T06:51:53.814Z,71.32
2019-05-10T06:54:00.390Z,71.09
2019-05-10T06:56:06.790Z,70.31
2019-05-10T06:58:13.211Z,71.14
2019-05-10T07:00:20.593Z,70.72
2019-05-10T07:02:32.203Z,71.26
2019-05-10T07:04:40.770Z,71.09
2019-05-10T07:06:43.781Z,70.78
2019-05-10T07:08:51.767Z,71.10
2019-05-10T07:10:59.577Z,69.58
2019-05-10T07:13:06.633Z,71.46
2019-05-10T07:15:14.108Z,69.98
2019-05-10T07:17:20.602Z,70.32
2019-05-10T07:19:28.871Z,70.18
2019-05-10T07:21:39.136Z,69.08
2019-05-10T07:23:44.727Z,68.89
2019-05-10T07:25:52.463Z,68.59
2019-05-10T07:27:58.979Z,68.23
2019-05-10T07:30:07.053Z,68.15
2019-05-10T07:32:16.511Z,67.85
2019-05-10T07:34:21.762Z,67.87
2019-05-10T07:36:31.257Z,68.30
2019-05-10T07:38:37.639Z,69.23
2019-05-10T07:40:44.116Z,68.50
2019-05-10T07:42:51.929Z,68.63
2019-05-10T07:45:00.433Z,68.38
2019-05-10T07:47:06.898Z,66.57
2019-05-10T07:49:13.569Z,66.14
2019-05-10T07:51:22.743Z,65.39
2019-05-10T07:53:28.835Z,64.35
2019-05-10T07:55:35.422Z,64.38
2019-05-10T07:57:41.797Z,64.93
2019-05-10T07:59:50.898Z,65.55
2019-05-10T08:01:56.548Z,64.28
2019-05-10T08:04:03.118Z,62.18
2019-05-10T08:06:09.682Z,60.36
2019-05-10T08:08:16.042Z,60.19
2019-05-10T08:10:24.763Z,60.92
2019-05-10T08:12:35.184Z,59.89
2019-05-10T08:14:39.530Z,59.97
2019-05-10T08:16:49.829Z,59.93
2019-05-10T08:18:55.836Z,57.75
2019-05-10T08:21:17.971Z,58.57
2019-05-10T08:23:13.073Z,58.87
2019-05-10T08:25:19.331Z,59.38
2019-05-10T08:27:26.004Z,59.26
2019-05-10T08:29:33.581Z,59.66
2019-05-10T08:31:47.039Z,59.32
2019-05-10T08:33:56.220Z,59.28
2019-05-10T08:36:00.550Z,59.81
2019-05-10T08:38:05.089Z,60.30
2019-05-10T08:40:12.787Z,60.73
2019-05-10T08:42:34.790Z,58.94
2019-05-10T08:44:27.439Z,59.26
2019-05-10T08:46:40.897Z,60.24
2019-05-10T08:48:46.202Z,58.43
2019-05-10T08:50:56.864Z,58.96
2019-05-10T08:53:02.368Z,58.23
2019-05-10T08:55:08.886Z,58.19
2019-05-10T08:59:44.272Z,58.39
2019-05-10T09:01:53.556Z,58.77
2019-05-10T09:04:00.838Z,58.99
2019-05-10T09:06:11.706Z,58.79
2019-05-10T09:08:20.346Z,58.92
2019-05-10T09:10:25.293Z,58.03
2019-05-10T09:12:32.923Z,58.25
2019-05-10T09:14:39.772Z,57.54
2019-05-10T09:16:56.291Z,57.63
2019-05-10T09:18:54.110Z,55.74
2019-05-10T09:21:08.478Z,55.81
2019-05-10T09:23:15.248Z,56.48
2019-05-10T09:25:29.184Z,56.40
2019-05-10T09:27:29.446Z,57.12
2019-05-10T09:29:37.521Z,56.43
2019-05-10T09:31:50.307Z,56.43
2019-05-10T09:33:54.410Z,56.99
2019-05-10T09:36:02.979Z,56.50
2019-05-10T09:38:12.304Z,55.76
2019-05-10T09:40:18.284Z,56.46
2019-05-10T09:42:30.650Z,55.88
2019-05-10T09:44:33.104Z,56.08
2019-05-10T09:46:42.037Z,57.09
2019-05-10T09:48:47.983Z,55.89
2019-05-10T09:50:55.987Z,56.29
2019-05-10T09:53:04.072Z,55.60
2019-05-10T09:55:14.654Z,56.34
2019-05-10T09:57:18.751Z,55.37
2019-05-10T09:59:25.095Z,55.13
2019-05-10T10:01:31.472Z,54.39
2019-05-10T10:03:44.973Z,54.64
2019-05-10T10:06:05.086Z,54.29
2019-05-10T10:08:11.040Z,54.57
2019-05-10T10:10:28.517Z,55.26
2019-05-10T10:12:28.920Z,55.61
2019-05-10T10:14:39.380Z,55.70
2019-05-10T10:16:48.949Z,56.01
2019-05-10T10:18:51.046Z,56.77
2019-05-10T10:20:58.538Z,56.21
2019-05-10T10:23:07.579Z,56.15
2019-05-10T10:25:14.397Z,55.53
2019-05-10T10:27:20.591Z,54.50
2019-05-10T10:29:28.692Z,54.55
2019-05-10T10:31:46.536Z,54.79
2019-05-10T10:33:54.825Z,53.61
2019-05-10T10:35:56.196Z,53.32
2019-05-10T10:38:03.110Z,54.34
2019-05-10T10:40:09.616Z,53.84
2019-05-10T10:42:17.676Z,54.29
2019-05-10T10:44:26.913Z,53.95
2019-05-10T10:46:34.799Z,52.89
2019-05-10T10:48:43.734Z,53.28
2019-05-10T10:50:55.565Z,52.90
2019-05-10T10:52:58.536Z,52.71
2019-05-10T10:57:19.963Z,51.64
2019-05-10T10:59:28.226Z,51.80
2019-05-10T11:01:49.136Z,52.57
2019-05-10T11:03:48.743Z,52.84
2019-05-10T11:05:54.132Z,53.70
2019-05-10T11:08:14.845Z,53.17
2019-05-10T11:10:18.575Z,51.07
2019-05-10T11:12:23.954Z,51.86
2019-05-10T11:14:39.856Z,52.56
2019-05-10T11:16:46.622Z,52.74
2019-05-10T11:18:55.010Z,52.70
2019-05-10T11:21:02.103Z,52.85
2019-05-10T11:23:10.688Z,51.28
2019-05-10T11:25:17.093Z,52.61
2019-05-10T11:27:23.463Z,52.30
2019-05-10T11:29:30.824Z,51.63
2019-05-10T11:31:41.345Z,50.87
2019-05-10T11:33:56.135Z,50.62
2019-05-10T11:35:57.664Z,49.96
2019-05-10T11:38:06.768Z,48.98
2019-05-10T11:40:18.005Z,48.47
2019-05-10T11:42:21.557Z,47.36
2019-05-10T11:44:27.865Z,47.52
2019-05-10T11:46:34.455Z,47.19
2019-05-10T11:48:42.249Z,47.25
2019-05-10T11:50:51.357Z,47.06
2019-05-10T11:52:57.017Z,47.24
2019-05-10T11:55:04.603Z,46.88
2019-05-10T11:57:13.751Z,47.37
2019-05-10T11:59:21.829Z,46.50
2019-05-10T12:01:27.702Z,47.03
2019-05-10T12:03:34.255Z,48.02
2019-05-10T12:05:42.485Z,48.64
2019-05-10T12:07:54.192Z,48.21
2019-05-10T12:10:07.532Z,47.91
2019-05-10T12:12:11.977Z,47.93
2019-05-10T12:14:16.520Z,45.81
2019-05-10T12:16:23.196Z,47.03
2019-05-10T12:18:35.649Z,47.63
2019-05-10T12:20:54.427Z,47.78
2019-05-10T12:22:47.754Z,48.21
2019-05-10T12:25:18.735Z,48.10
2019-05-10T12:27:17.251Z,49.02
2019-05-10T12:29:15.564Z,48.20
2019-05-10T12:31:21.008Z,48.64
2019-05-10T12:33:27.932Z,47.91
2019-05-10T12:35:39.317Z,47.56
2019-05-10T12:37:46.190Z,47.32
2019-05-10T12:39:52.931Z,47.10
2019-05-10T12:41:58.584Z,46.51
2019-05-10T12:44:08.017Z,47.41
2019-05-10T12:46:14.581Z,47.44
2019-05-10T12:48:23.229Z,47.68
2019-05-10T12:50:29.357Z,47.38
2019-05-10T12:52:35.940Z,47.33
2019-05-10T12:54:44.464Z,47.97
2019-05-10T12:56:50.505Z,47.48
2019-05-10T12:58:59.292Z,47.43
2019-05-10T13:01:04.959Z,47.01
2019-05-10T13:03:13.313Z,46.41
2019-05-10T13:05:30.789Z,46.69
2019-05-10T13:07:27.847Z,46.22
2019-05-10T13:09:39.882Z,46.74
2019-05-10T13:11:42.306Z,46.58
2019-05-10T13:13:52.023Z,46.44
2019-05-10T13:16:03.697Z,46.33
2019-05-10T13:18:08.653Z,45.79
2019-05-10T13:20:15.523Z,45.98
2019-05-10T13:22:21.893Z,45.67
2019-05-10T13:24:28.671Z,45.37
2019-05-10T13:26:35.040Z,41.63
2019-05-10T13:28:41.817Z,40.92
2019-05-10T13:30:49.607Z,40.94
2019-05-10T13:32:58.559Z,41.06
2019-05-10T13:35:06.988Z,40.60
2019-05-10T13:37:23.254Z,40.40
2019-05-10T13:39:25.650Z,41.60
2019-05-10T13:41:29.422Z,41.86
2019-05-10T13:43:35.864Z,41.69
2019-05-10T13:45:42.753Z,41.86
2019-05-10T13:47:50.328Z,41.91
2019-05-10T13:49:56.701Z,41.71
2019-05-10T13:52:03.144Z,41.83
2019-05-10T13:54:09.769Z,42.07
2019-05-10T13:56:16.546Z,42.56
2019-05-10T13:58:23.073Z,42.37
2019-05-10T14:00:34.050Z,43.09
2019-05-10T14:02:38.249Z,42.80
2019-05-10T14:04:44.621Z,42.80
2019-05-10T14:06:50.992Z,42.55
2019-05-10T14:08:57.665Z,41.61
2019-05-10T14:11:04.123Z,41.90
2019-05-10T14:13:10.672Z,41.13
2019-05-10T14:15:19.294Z,41.51
2019-05-10T14:17:26.282Z,40.67
2019-05-10T14:19:35.926Z,40.50
2019-05-10T14:21:40.744Z,40.51
2019-05-10T14:23:47.601Z,40.42
2019-05-10T14:25:55.683Z,40.06
2019-05-10T14:28:09.467Z,39.36
2019-05-10T14:30:15.831Z,39.95
2019-05-10T14:32:20.295Z,40.30
2019-05-10T14:34:26.902Z,40.32
2019-05-10T14:36:40.698Z,40.92
2019-05-10T14:38:47.533Z,40.97
2019-05-10T14:40:51.921Z,41.80
2019-05-10T14:42:58.289Z,41.45
2019-05-10T14:45:05.764Z,42.05
2019-05-10T14:47:13.164Z,41.67
2019-05-10T14:49:20.775Z,42.21
2019-05-10T14:51:40.315Z,42.76
2019-05-10T14:53:35.425Z,43.33
2019-05-10T14:55:42.176Z,43.65
2019-05-10T14:57:50.498Z,44.59
2019-05-10T14:59:57.082Z,44.72
2019-05-10T15:02:03.644Z,45.37
2019-05-10T15:04:10.225Z,46.57
2019-05-10T15:06:16.889Z,48.10
2019-05-10T15:08:23.532Z,49.58
2019-05-10T15:10:33.180Z,51.39
2019-05-10T15:12:38.021Z,53.88
2019-05-10T15:14:44.688Z,54.49
2019-05-10T15:16:51.351Z,55.16
2019-05-10T15:18:59.361Z,56.01
2019-05-10T15:21:06.348Z,56.89
2019-05-10T15:23:13.012Z,57.36
2019-05-10T15:25:19.887Z,57.21
2019-05-10T15:27:26.348Z,57.25
2019-05-10T15:29:33.836Z,58.54
2019-05-10T15:31:42.751Z,59.47
2019-05-10T15:33:49.429Z,60.05
2019-05-10T15:35:55.874Z,60.12
2019-05-10T15:38:02.620Z,60.44
2019-05-10T15:40:12.080Z,60.71
2019-05-10T15:42:21.800Z,60.18
2019-05-10T15:44:31.541Z,60.86
2019-05-10T15:46:41.721Z,59.88
2019-05-10T15:48:44.192Z,60.14
2019-05-10T15:50:51.698Z,60.28
2019-05-10T15:52:58.362Z,60.85
2019-05-10T15:55:06.607Z,61.40
2019-05-10T15:57:20.005Z,61.88
2019-05-10T15:59:22.995Z,62.41
2019-05-10T16:01:30.785Z,62.73
2019-05-10T16:03:39.197Z,62.45
2019-05-10T16:05:58.849Z,62.23
2019-05-10T16:07:53.875Z,62.98
2019-05-10T16:10:00.444Z,62.68
2019-05-10T16:12:08.664Z,62.82
2019-05-10T16:14:15.318Z,62.34
2019-05-10T16:16:22.292Z,62.18
2019-05-10T16:18:33.334Z,62.18
2019-05-10T16:20:39.107Z,61.23
2019-05-10T16:22:45.980Z,61.34
2019-05-10T16:24:52.901Z,61.03
2019-05-10T16:27:00.029Z,60.44
2019-05-10T16:29:07.630Z,60.64
2019-05-10T16:31:14.297Z,60.69
2019-05-10T16:33:21.640Z,61.37
2019-05-10T16:35:38.493Z,61.67
2019-05-10T16:37:37.674Z,61.72
2019-05-10T16:39:44.466Z,61.61
2019-05-10T16:41:50.918Z,61.62
2019-05-10T16:44:01.334Z,61.49
2019-05-10T16:46:07.934Z,61.32
2019-05-10T16:48:15.740Z,61.12
2019-05-10T16:50:26.185Z,60.84
2019-05-10T16:52:31.641Z,59.30
2019-05-10T16:54:40.766Z,58.62
2019-05-10T16:56:51.746Z,58.36
2019-05-10T16:58:55.204Z,58.43
2019-05-10T17:01:03.345Z,59.11
2019-05-10T17:03:13.199Z,59.69
2019-05-10T17:05:21.169Z,60.36
2019-05-10T17:07:28.562Z,60.95
2019-05-10T17:09:35.652Z,61.41
2019-05-10T17:11:46.804Z,61.62
2019-05-10T17:13:50.322Z,62.33
2019-05-10T17:15:56.686Z,62.02
2019-05-10T17:18:04.533Z,62.35
2019-05-10T17:20:14.732Z,62.85
2019-05-10T17:22:21.298Z,63.11
2019-05-10T17:24:27.841Z,62.69
2019-05-10T17:26:34.734Z,61.61
2019-05-10T17:28:41.505Z,61.88
2019-05-10T17:30:47.880Z,61.91
2019-05-10T17:32:57.805Z,61.57
2019-05-10T17:35:05.322Z,61.51
2019-05-10T17:37:13.554Z,61.41
2019-05-10T17:39:20.199Z,61.49
2019-05-10T17:41:27.061Z,61.28
2019-05-10T17:43:33.885Z,61.35
2019-05-10T17:45:42.254Z,62.07
2019-05-10T17:47:50.146Z,61.60
2019-05-10T17:49:58.170Z,61.63
2019-05-10T17:52:05.121Z,61.76
2019-05-10T17:54:11.546Z,61.61
2019-05-10T17:56:19.594Z,61.73
2019-05-10T17:58:27.948Z,61.81
2019-05-10T18:00:34.374Z,61.97
2019-05-10T18:02:40.859Z,62.15
2019-05-10T18:04:47.192Z,61.87
2019-05-10T18:06:53.648Z,61.93
2019-05-10T18:09:00.120Z,62.08
2019-05-10T18:11:09.467Z,62.10
2019-05-10T18:13:15.800Z,62.31
2019-05-10T18:15:22.373Z,62.79
2019-05-10T18:17:28.749Z,63.00
2019-05-10T18:19:35.087Z,63.04
2019-05-10T18:21:41.486Z,63.48
2019-05-10T18:23:52.681Z,63.72
2019-05-10T18:25:58.651Z,64.14
2019-05-10T18:28:05.987Z,64.04
2019-05-10T18:30:13.310Z,64.13
2019-05-10T18:32:20.073Z,64.08
2019-05-10T18:34:33.053Z,64.22
2019-05-10T18:36:51.169Z,64.26
2019-05-10T18:38:43.954Z,64.55
2019-05-10T18:40:50.840Z,64.87
2019-05-10T18:43:03.044Z,65.27
2019-05-10T18:45:08.627Z,65.59
2019-05-10T18:47:15.546Z,66.03
2019-05-10T18:49:22.209Z,66.45
2019-05-10T18:51:28.910Z,66.71
2019-05-10T18:53:35.457Z,67.27
2019-05-10T18:55:41.817Z,67.80
2019-05-10T18:57:50.758Z,68.07
2019-05-10T18:59:56.379Z,68.33
2019-05-10T19:02:03.169Z,68.60
2019-05-10T19:04:14.222Z,69.02
2019-05-10T19:06:18.735Z,69.50
2019-05-10T19:08:28.524Z,69.97
2019-05-10T19:10:36.412Z,70.32
2019-05-10T19:12:43.400Z,70.51
2019-05-10T19:14:52.182Z,70.70
2019-05-10T19:17:03.693Z,70.46
2019-05-10T19:19:06.866Z,70.38
2019-05-10T19:21:15.032Z,70.38
2019-05-10T19:23:21.850Z,70.71
2019-05-10T19:25:28.196Z,70.93
2019-05-10T19:27:38.853Z,71.37
2019-05-10T19:29:46.090Z,71.46
2019-05-10T19:31:54.357Z,71.68
2019-05-10T19:34:00.746Z,72.17
2019-05-10T19:36:12.513Z,72.48
2019-05-10T19:38:17.258Z,72.70
2019-05-10T19:40:24.547Z,73.10
2019-05-10T19:42:37.385Z,73.37
2019-05-10T19:44:42.231Z,73.77
2019-05-10T19:46:49.244Z,74.11
2019-05-10T19:48:55.617Z,74.33
2019-05-10T19:51:02.846Z,74.48
2019-05-10T19:53:13.449Z,74.54
2019-05-10T19:55:21.751Z,74.51
2019-05-10T19:57:28.225Z,74.59
2019-05-10T19:59:34.587Z,74.64
2019-05-10T20:01:44.773Z,74.66
2019-05-10T20:03:51.495Z,74.74
2019-05-10T20:06:00.761Z,74.76
2019-05-10T20:08:07.085Z,74.73
2019-05-10T20:10:14.503Z,74.83
2019-05-10T20:12:21.063Z,74.93
2019-05-10T20:14:27.735Z,75.03
2019-05-10T20:16:34.223Z,75.03
2019-05-10T20:18:42.271Z,75.08
2019-05-10T20:20:48.667Z,75.19
2019-05-10T20:22:55.395Z,75.20
2019-05-10T20:25:02.204Z,75.25
2019-05-10T20:27:08.661Z,75.44
2019-05-10T20:29:15.314Z,75.64
2019-05-10T20:31:21.976Z,75.68
2019-05-10T20:33:28.415Z,76.12
2019-05-10T20:35:38.607Z,75.96
2019-05-10T20:38:00.344Z,75.92
2019-05-10T20:39:53.186Z,76.06
2019-05-10T20:41:59.577Z,75.98
2019-05-10T20:44:07.116Z,75.94
2019-05-10T20:46:13.809Z,75.85
2019-05-10T20:48:20.612Z,76.27
2019-05-10T20:50:28.705Z,76.06
2019-05-10T20:52:36.169Z,76.22
2019-05-10T20:54:42.653Z,76.23
2019-05-10T20:56:50.549Z,76.30
2019-05-10T20:58:57.291Z,76.28
2019-05-10T21:01:05.694Z,76.72
2019-05-10T21:03:13.876Z,76.73
2019-05-10T21:05:20.719Z,76.59
2019-05-10T21:07:27.399Z,76.73
2019-05-10T21:09:33.854Z,77.15
2019-05-10T21:11:40.190Z,77.44
2019-05-10T21:13:46.866Z,77.29
2019-05-10T21:15:54.518Z,77.28
2019-05-10T21:18:01.643Z,77.45
2019-05-10T21:20:10.056Z,77.75
2019-05-10T21:22:17.527Z,78.00
2019-05-10T21:24:23.905Z,78.22
2019-05-10T21:26:32.457Z,78.46
2019-05-10T21:28:39.401Z,78.76
2019-05-10T21:30:46.226Z,78.89
2019-05-10T21:32:54.062Z,79.27
2019-05-10T21:35:03.156Z,79.46
2019-05-10T21:37:09.789Z,79.66
2019-05-10T21:39:16.524Z,79.37
2019-05-10T21:41:23.103Z,79.43
2019-05-10T21:43:29.527Z,79.46
2019-05-10T21:45:36.048Z,79.56
2019-05-10T21:47:51.577Z,79.92
2019-05-10T21:49:52.645Z,79.90
2019-05-10T21:52:01.008Z,80.04
2019-05-10T21:54:07.733Z,80.41
2019-05-10T21:56:14.096Z,80.44
2019-05-10T21:58:25.783Z,80.92
2019-05-10T22:00:43.009Z,80.61
2019-05-10T22:02:49.733Z,80.84
2019-05-10T22:04:56.510Z,80.96
2019-05-10T22:07:03.356Z,81.31
2019-05-10T22:09:10.927Z,81.53
2019-05-10T22:11:17.600Z,81.64
2019-05-10T22:13:24.212Z,81.86
2019-05-10T22:15:30.623Z,82.08
2019-05-10T22:17:37.512Z,82.31
2019-05-10T22:19:45.617Z,82.53
2019-05-10T22:21:55.199Z,82.95
2019-05-10T22:24:00.375Z,83.13
2019-05-10T22:26:06.860Z,83.56
2019-05-10T22:28:13.229Z,83.34
2019-05-10T22:30:19.783Z,83.36
2019-05-10T22:32:27.047Z,83.79
2019-05-10T22:34:33.523Z,83.48
2019-05-10T22:36:40.131Z,83.36
2019-05-10T22:38:46.435Z,83.28
2019-05-10T22:40:53.107Z,83.31
2019-05-10T22:43:01.740Z,83.41
2019-05-10T22:45:09.312Z,83.45
2019-05-10T22:47:15.945Z,83.51
2019-05-10T22:49:22.515Z,83.62
2019-05-10T22:51:29.646Z,83.71
2019-05-10T22:53:37.437Z,83.77
2019-05-10T22:55:43.852Z,83.86
2019-05-10T22:57:50.686Z,83.97
2019-05-10T22:59:57.035Z,83.99
2019-05-10T23:02:03.606Z,83.95
2019-05-10T23:04:10.569Z,83.92
2019-05-10T23:06:16.939Z,83.98
2019-05-10T23:08:23.306Z,84.06
2019-05-10T23:10:38.270Z,84.12
2019-05-10T23:12:44.629Z,84.13
2019-05-10T23:14:52.956Z,84.21
2019-05-10T23:16:59.747Z,84.26
2019-05-10T23:19:06.086Z,84.33
2019-05-10T23:21:13.976Z,84.42
2019-05-10T23:23:21.121Z,84.42
2019-05-10T23:25:28.228Z,84.47
2019-05-10T23:27:34.666Z,84.50
2019-05-10T23:29:43.735Z,84.55
2019-05-10T23:31:50.078Z,84.52
2019-05-10T23:33:56.898Z,84.58
2019-05-10T23:36:03.218Z,84.66
2019-05-10T23:38:10.887Z,84.80
2019-05-10T23:40:17.392Z,84.81
2019-05-10T23:42:23.839Z,84.80
2019-05-10T23:44:30.516Z,84.95
2019-05-10T23:46:37.240Z,84.97
2019-05-10T23:48:43.912Z,85.04
2019-05-10T23:50:50.516Z,85.13
2019-05-10T23:52:56.897Z,85.24
2019-05-10T23:55:03.252Z,85.32
2019-05-10T23:57:10.113Z,85.47
2019-05-10T23:59:16.488Z,85.60
